sensor_id;sensor_type;location;lat;lon;timestamp;P1;durP1;ratioP1;P2;durP2;ratioP2
63089;SDS011;49174;43.198;27.824;2022-12-07T00:01:08;5.55;;;3.28;;
63089;SDS011;49174;43.198;27.824;2022-12-07T00:03:39;10.20;;;4.03;;
63089;SDS011;49174;43.198;27.824;2022-12-07T00:06:06;3.97;;;2.25;;
63089;SDS011;49174;43.198;27.824;2022-12-07T00:08:32;5.80;;;2.58;;
63089;SDS011;49174;43.198;27.824;2022-12-07T00:11:06;7.05;;;3.15;;
63089;SDS011;49174;43.198;27.824;2022-12-07T00:13:34;8.05;;;2.80;;
63089;SDS011;49174;43.198;27.824;2022-12-07T00:16:03;4.43;;;2.78;;
63089;SDS011;49174;43.198;27.824;2022-12-07T00:18:34;7.25;;;3.22;;
63089;SDS011;49174;43.198;27.824;2022-12-07T00:21:03;3.95;;;2.33;;
63089;SDS011;49174;43.198;27.824;2022-12-07T00:23:35;3.60;;;2.00;;
63089;SDS011;49174;43.198;27.824;2022-12-07T00:26:04;3.85;;;2.20;;
63089;SDS011;49174;43.198;27.824;2022-12-07T00:28:33;5.25;;;2.78;;
63089;SDS011;49174;43.198;27.824;2022-12-07T00:31:09;7.95;;;3.20;;
63089;SDS011;49174;43.198;27.824;2022-12-07T00:33:37;8.30;;;2.38;;
63089;SDS011;49174;43.198;27.824;2022-12-07T00:36:04;5.05;;;2.88;;
63089;SDS011;49174;43.198;27.824;2022-12-07T00:38:32;6.28;;;3.08;;
63089;SDS011;49174;43.198;27.824;2022-12-07T00:41:00;5.07;;;3.67;;
63089;SDS011;49174;43.198;27.824;2022-12-07T00:43:28;8.32;;;4.03;;
63089;SDS011;49174;43.198;27.824;2022-12-07T00:45:54;7.97;;;3.70;;
63089;SDS011;49174;43.198;27.824;2022-12-07T00:48:21;7.85;;;4.28;;
63089;SDS011;49174;43.198;27.824;2022-12-07T00:50:47;6.88;;;3.10;;
63089;SDS011;49174;43.198;27.824;2022-12-07T00:53:13;6.63;;;3.30;;
63089;SDS011;49174;43.198;27.824;2022-12-07T00:55:39;9.27;;;3.08;;
63089;SDS011;49174;43.198;27.824;2022-12-07T00:58:04;8.50;;;3.45;;
63089;SDS011;49174;43.198;27.824;2022-12-07T01:00:30;6.72;;;4.55;;
63089;SDS011;49174;43.198;27.824;2022-12-07T01:02:56;8.98;;;3.28;;
63089;SDS011;49174;43.198;27.824;2022-12-07T01:05:22;7.82;;;3.33;;
63089;SDS011;49174;43.198;27.824;2022-12-07T01:07:47;5.38;;;2.78;;
63089;SDS011;49174;43.198;27.824;2022-12-07T01:10:13;4.55;;;2.45;;
63089;SDS011;49174;43.198;27.824;2022-12-07T01:12:39;4.97;;;2.58;;
63089;SDS011;49174;43.198;27.824;2022-12-07T01:15:06;5.22;;;2.53;;
63089;SDS011;49174;43.198;27.824;2022-12-07T01:17:32;3.38;;;2.63;;
63089;SDS011;49174;43.198;27.824;2022-12-07T01:19:58;5.90;;;2.15;;
63089;SDS011;49174;43.198;27.824;2022-12-07T01:22:23;5.75;;;3.72;;
63089;SDS011;49174;43.198;27.824;2022-12-07T01:24:49;9.63;;;4.55;;
63089;SDS011;49174;43.198;27.824;2022-12-07T01:27:14;6.00;;;4.03;;
63089;SDS011;49174;43.198;27.824;2022-12-07T01:29:40;10.45;;;4.93;;
63089;SDS011;49174;43.198;27.824;2022-12-07T01:32:06;7.57;;;3.15;;
63089;SDS011;49174;43.198;27.824;2022-12-07T01:34:31;3.28;;;1.95;;
63089;SDS011;49174;43.198;27.824;2022-12-07T01:36:57;6.10;;;2.65;;
63089;SDS011;49174;43.198;27.824;2022-12-07T01:39:23;4.97;;;2.63;;
63089;SDS011;49174;43.198;27.824;2022-12-07T01:41:48;7.18;;;3.63;;
63089;SDS011;49174;43.198;27.824;2022-12-07T01:44:18;8.35;;;4.13;;
63089;SDS011;49174;43.198;27.824;2022-12-07T01:46:57;8.27;;;4.07;;
63089;SDS011;49174;43.198;27.824;2022-12-07T01:49:35;11.68;;;5.47;;
63089;SDS011;49174;43.198;27.824;2022-12-07T01:54:40;15.88;;;6.00;;
63089;SDS011;49174;43.198;27.824;2022-12-07T01:57:09;15.95;;;7.93;;
63089;SDS011;49174;43.198;27.824;2022-12-07T01:59:35;12.38;;;7.32;;
63089;SDS011;49174;43.198;27.824;2022-12-07T02:02:02;13.55;;;6.68;;
63089;SDS011;49174;43.198;27.824;2022-12-07T02:04:31;12.40;;;6.03;;
63089;SDS011;49174;43.198;27.824;2022-12-07T02:06:56;14.02;;;6.13;;
63089;SDS011;49174;43.198;27.824;2022-12-07T02:09:23;9.10;;;5.07;;
63089;SDS011;49174;43.198;27.824;2022-12-07T02:11:48;12.40;;;4.88;;
63089;SDS011;49174;43.198;27.824;2022-12-07T02:14:15;11.80;;;5.43;;
63089;SDS011;49174;43.198;27.824;2022-12-07T02:16:51;9.85;;;4.88;;
63089;SDS011;49174;43.198;27.824;2022-12-07T02:19:37;12.23;;;4.30;;
63089;SDS011;49174;43.198;27.824;2022-12-07T02:25:27;11.77;;;6.35;;
63089;SDS011;49174;43.198;27.824;2022-12-07T02:30:48;18.08;;;9.20;;
63089;SDS011;49174;43.198;27.824;2022-12-07T02:34:00;25.55;;;10.93;;
63089;SDS011;49174;43.198;27.824;2022-12-07T02:36:12;28.58;;;14.80;;
63089;SDS011;49174;43.198;27.824;2022-12-07T02:41:22;52.53;;;21.65;;
63089;SDS011;49174;43.198;27.824;2022-12-07T02:43:56;36.80;;;17.50;;
63089;SDS011;49174;43.198;27.824;2022-12-07T02:46:36;31.67;;;14.18;;
63089;SDS011;49174;43.198;27.824;2022-12-07T02:49:05;30.27;;;14.27;;
63089;SDS011;49174;43.198;27.824;2022-12-07T02:51:33;19.38;;;10.70;;
63089;SDS011;49174;43.198;27.824;2022-12-07T02:54:07;25.15;;;13.35;;
63089;SDS011;49174;43.198;27.824;2022-12-07T03:05:10;22.17;;;10.18;;
63089;SDS011;49174;43.198;27.824;2022-12-07T03:13:02;21.10;;;10.25;;
63089;SDS011;49174;43.198;27.824;2022-12-07T03:18:07;20.42;;;9.68;;
63089;SDS011;49174;43.198;27.824;2022-12-07T03:20:34;13.23;;;7.78;;
63089;SDS011;49174;43.198;27.824;2022-12-07T03:23:04;12.45;;;7.68;;
63089;SDS011;49174;43.198;27.824;2022-12-07T03:25:35;14.40;;;6.55;;
63089;SDS011;49174;43.198;27.824;2022-12-07T03:28:07;13.20;;;6.20;;
63089;SDS011;49174;43.198;27.824;2022-12-07T03:30:37;14.05;;;6.05;;
63089;SDS011;49174;43.198;27.824;2022-12-07T03:33:56;16.70;;;6.63;;
63089;SDS011;49174;43.198;27.824;2022-12-07T03:36:08;11.88;;;5.95;;
63089;SDS011;49174;43.198;27.824;2022-12-07T03:38:42;13.00;;;6.47;;
63089;SDS011;49174;43.198;27.824;2022-12-07T03:41:16;11.30;;;5.60;;
63089;SDS011;49174;43.198;27.824;2022-12-07T03:43:48;12.77;;;5.57;;
63089;SDS011;49174;43.198;27.824;2022-12-07T03:54:59;14.43;;;7.25;;
63089;SDS011;49174;43.198;27.824;2022-12-07T03:57:31;16.88;;;7.82;;
63089;SDS011;49174;43.198;27.824;2022-12-07T03:59:58;13.65;;;6.72;;
63089;SDS011;49174;43.198;27.824;2022-12-07T04:02:26;12.07;;;6.65;;
63089;SDS011;49174;43.198;27.824;2022-12-07T04:04:54;17.98;;;7.68;;
63089;SDS011;49174;43.198;27.824;2022-12-07T04:07:20;13.80;;;6.88;;
63089;SDS011;49174;43.198;27.824;2022-12-07T04:09:46;14.40;;;7.15;;
63089;SDS011;49174;43.198;27.824;2022-12-07T04:12:12;17.40;;;7.10;;
63089;SDS011;49174;43.198;27.824;2022-12-07T04:14:37;16.70;;;7.50;;
63089;SDS011;49174;43.198;27.824;2022-12-07T04:17:03;12.82;;;8.15;;
63089;SDS011;49174;43.198;27.824;2022-12-07T04:19:30;19.70;;;7.55;;
63089;SDS011;49174;43.198;27.824;2022-12-07T04:21:57;24.35;;;8.20;;
63089;SDS011;49174;43.198;27.824;2022-12-07T04:24:25;14.98;;;9.20;;
63089;SDS011;49174;43.198;27.824;2022-12-07T04:26:51;21.25;;;8.93;;
63089;SDS011;49174;43.198;27.824;2022-12-07T04:29:17;18.33;;;9.00;;
63089;SDS011;49174;43.198;27.824;2022-12-07T04:31:43;15.32;;;9.30;;
63089;SDS011;49174;43.198;27.824;2022-12-07T04:34:09;17.08;;;9.13;;
63089;SDS011;49174;43.198;27.824;2022-12-07T04:36:36;18.88;;;9.55;;
63089;SDS011;49174;43.198;27.824;2022-12-07T04:39:02;17.15;;;10.35;;
63089;SDS011;49174;43.198;27.824;2022-12-07T04:41:29;18.98;;;9.85;;
63089;SDS011;49174;43.198;27.824;2022-12-07T04:43:59;17.88;;;10.75;;
63089;SDS011;49174;43.198;27.824;2022-12-07T04:46:27;20.42;;;11.80;;
63089;SDS011;49174;43.198;27.824;2022-12-07T04:48:54;16.83;;;11.82;;
63089;SDS011;49174;43.198;27.824;2022-12-07T04:51:22;20.88;;;12.70;;
63089;SDS011;49174;43.198;27.824;2022-12-07T04:53:49;21.15;;;13.05;;
63089;SDS011;49174;43.198;27.824;2022-12-07T04:56:15;27.55;;;13.68;;
63089;SDS011;49174;43.198;27.824;2022-12-07T04:58:44;26.10;;;13.35;;
63089;SDS011;49174;43.198;27.824;2022-12-07T05:01:11;20.45;;;11.98;;
63089;SDS011;49174;43.198;27.824;2022-12-07T05:03:38;26.10;;;11.80;;
63089;SDS011;49174;43.198;27.824;2022-12-07T05:06:04;19.70;;;11.48;;
63089;SDS011;49174;43.198;27.824;2022-12-07T05:08:30;19.40;;;11.95;;
63089;SDS011;49174;43.198;27.824;2022-12-07T05:10:56;23.80;;;13.75;;
63089;SDS011;49174;43.198;27.824;2022-12-07T05:13:22;50.45;;;22.45;;
63089;SDS011;49174;43.198;27.824;2022-12-07T05:15:48;46.45;;;18.58;;
63089;SDS011;49174;43.198;27.824;2022-12-07T05:18:14;37.03;;;16.23;;
63089;SDS011;49174;43.198;27.824;2022-12-07T05:20:40;54.97;;;25.42;;
63089;SDS011;49174;43.198;27.824;2022-12-07T05:23:05;62.97;;;24.73;;
63089;SDS011;49174;43.198;27.824;2022-12-07T05:25:31;58.83;;;25.08;;
63089;SDS011;49174;43.198;27.824;2022-12-07T05:27:56;64.43;;;25.98;;
63089;SDS011;49174;43.198;27.824;2022-12-07T05:30:23;47.60;;;21.38;;
63089;SDS011;49174;43.198;27.824;2022-12-07T05:32:49;50.65;;;20.08;;
63089;SDS011;49174;43.198;27.824;2022-12-07T05:35:15;41.85;;;18.48;;
63089;SDS011;49174;43.198;27.824;2022-12-07T05:37:42;39.40;;;17.60;;
63089;SDS011;49174;43.198;27.824;2022-12-07T05:40:08;41.78;;;17.13;;
63089;SDS011;49174;43.198;27.824;2022-12-07T05:42:34;32.35;;;14.45;;
63089;SDS011;49174;43.198;27.824;2022-12-07T05:45:00;24.52;;;13.02;;
63089;SDS011;49174;43.198;27.824;2022-12-07T05:47:28;28.38;;;14.38;;
63089;SDS011;49174;43.198;27.824;2022-12-07T05:49:53;31.55;;;16.58;;
63089;SDS011;49174;43.198;27.824;2022-12-07T05:52:19;31.17;;;14.23;;
63089;SDS011;49174;43.198;27.824;2022-12-07T05:54:44;26.00;;;15.32;;
63089;SDS011;49174;43.198;27.824;2022-12-07T05:57:10;31.77;;;15.82;;
63089;SDS011;49174;43.198;27.824;2022-12-07T05:59:36;26.00;;;14.70;;
63089;SDS011;49174;43.198;27.824;2022-12-07T06:02:06;28.48;;;13.35;;
63089;SDS011;49174;43.198;27.824;2022-12-07T06:04:36;28.73;;;15.38;;
63089;SDS011;49174;43.198;27.824;2022-12-07T06:07:07;26.02;;;15.05;;
63089;SDS011;49174;43.198;27.824;2022-12-07T06:09:33;24.55;;;14.13;;
63089;SDS011;49174;43.198;27.824;2022-12-07T06:11:59;30.23;;;16.05;;
63089;SDS011;49174;43.198;27.824;2022-12-07T06:14:43;28.05;;;14.65;;
63089;SDS011;49174;43.198;27.824;2022-12-07T06:17:10;40.22;;;19.73;;
63089;SDS011;49174;43.198;27.824;2022-12-07T06:19:37;36.55;;;15.30;;
63089;SDS011;49174;43.198;27.824;2022-12-07T06:22:02;34.40;;;17.67;;
63089;SDS011;49174;43.198;27.824;2022-12-07T06:24:29;41.00;;;19.35;;
63089;SDS011;49174;43.198;27.824;2022-12-07T06:26:56;42.63;;;18.67;;
63089;SDS011;49174;43.198;27.824;2022-12-07T06:29:21;36.42;;;17.08;;
63089;SDS011;49174;43.198;27.824;2022-12-07T06:31:47;33.67;;;16.85;;
63089;SDS011;49174;43.198;27.824;2022-12-07T06:34:14;36.92;;;16.40;;
63089;SDS011;49174;43.198;27.824;2022-12-07T06:36:41;29.65;;;14.77;;
63089;SDS011;49174;43.198;27.824;2022-12-07T06:39:07;39.92;;;15.40;;
63089;SDS011;49174;43.198;27.824;2022-12-07T06:41:37;30.02;;;15.30;;
63089;SDS011;49174;43.198;27.824;2022-12-07T06:44:03;33.55;;;15.18;;
63089;SDS011;49174;43.198;27.824;2022-12-07T06:46:32;32.95;;;15.63;;
63089;SDS011;49174;43.198;27.824;2022-12-07T06:48:58;28.08;;;14.02;;
63089;SDS011;49174;43.198;27.824;2022-12-07T06:51:23;30.02;;;14.25;;
63089;SDS011;49174;43.198;27.824;2022-12-07T06:53:49;30.73;;;14.70;;
63089;SDS011;49174;43.198;27.824;2022-12-07T06:56:14;27.85;;;17.20;;
63089;SDS011;49174;43.198;27.824;2022-12-07T06:58:40;26.75;;;16.33;;
63089;SDS011;49174;43.198;27.824;2022-12-07T07:01:13;25.63;;;14.20;;
63089;SDS011;49174;43.198;27.824;2022-12-07T07:03:40;26.20;;;14.98;;
63089;SDS011;49174;43.198;27.824;2022-12-07T07:06:12;23.80;;;12.07;;
63089;SDS011;49174;43.198;27.824;2022-12-07T07:08:38;18.38;;;11.55;;
63089;SDS011;49174;43.198;27.824;2022-12-07T07:11:04;18.50;;;9.27;;
63089;SDS011;49174;43.198;27.824;2022-12-07T07:13:32;17.85;;;11.50;;
63089;SDS011;49174;43.198;27.824;2022-12-07T07:15:58;16.65;;;11.30;;
63089;SDS011;49174;43.198;27.824;2022-12-07T07:18:23;23.63;;;14.43;;
63089;SDS011;49174;43.198;27.824;2022-12-07T07:20:50;17.90;;;11.02;;
63089;SDS011;49174;43.198;27.824;2022-12-07T07:23:16;14.80;;;9.38;;
63089;SDS011;49174;43.198;27.824;2022-12-07T07:25:42;17.02;;;9.50;;
63089;SDS011;49174;43.198;27.824;2022-12-07T07:28:07;13.90;;;9.52;;
63089;SDS011;49174;43.198;27.824;2022-12-07T07:30:34;15.00;;;10.07;;
63089;SDS011;49174;43.198;27.824;2022-12-07T07:33:00;19.05;;;14.23;;
63089;SDS011;49174;43.198;27.824;2022-12-07T07:35:27;14.50;;;8.82;;
63089;SDS011;49174;43.198;27.824;2022-12-07T07:37:53;15.93;;;9.05;;
63089;SDS011;49174;43.198;27.824;2022-12-07T07:40:19;14.73;;;8.18;;
63089;SDS011;49174;43.198;27.824;2022-12-07T07:42:46;74.50;;;40.80;;
63089;SDS011;49174;43.198;27.824;2022-12-07T07:45:16;20.02;;;13.02;;
63089;SDS011;49174;43.198;27.824;2022-12-07T07:47:42;13.38;;;9.27;;
63089;SDS011;49174;43.198;27.824;2022-12-07T07:50:07;28.05;;;15.23;;
63089;SDS011;49174;43.198;27.824;2022-12-07T07:52:33;14.27;;;9.73;;
63089;SDS011;49174;43.198;27.824;2022-12-07T07:54:59;14.25;;;9.10;;
63089;SDS011;49174;43.198;27.824;2022-12-07T07:57:24;15.77;;;8.98;;
63089;SDS011;49174;43.198;27.824;2022-12-07T07:59:50;13.82;;;9.10;;
63089;SDS011;49174;43.198;27.824;2022-12-07T08:02:16;11.23;;;7.45;;
63089;SDS011;49174;43.198;27.824;2022-12-07T08:04:43;18.27;;;9.63;;
63089;SDS011;49174;43.198;27.824;2022-12-07T08:07:10;30.17;;;14.48;;
63089;SDS011;49174;43.198;27.824;2022-12-07T08:09:37;34.92;;;13.45;;
63089;SDS011;49174;43.198;27.824;2022-12-07T08:12:02;16.38;;;8.10;;
63089;SDS011;49174;43.198;27.824;2022-12-07T08:14:28;30.73;;;13.98;;
63089;SDS011;49174;43.198;27.824;2022-12-07T08:16:54;18.40;;;10.57;;
63089;SDS011;49174;43.198;27.824;2022-12-07T08:19:20;12.45;;;6.88;;
63089;SDS011;49174;43.198;27.824;2022-12-07T08:21:47;14.23;;;8.07;;
63089;SDS011;49174;43.198;27.824;2022-12-07T08:24:13;15.35;;;8.43;;
63089;SDS011;49174;43.198;27.824;2022-12-07T08:26:38;15.90;;;8.70;;
63089;SDS011;49174;43.198;27.824;2022-12-07T08:29:04;12.60;;;7.90;;
63089;SDS011;49174;43.198;27.824;2022-12-07T08:31:30;15.77;;;9.65;;
63089;SDS011;49174;43.198;27.824;2022-12-07T08:33:55;17.65;;;9.13;;
63089;SDS011;49174;43.198;27.824;2022-12-07T08:36:21;14.73;;;8.63;;
63089;SDS011;49174;43.198;27.824;2022-12-07T08:38:48;13.82;;;9.38;;
63089;SDS011;49174;43.198;27.824;2022-12-07T08:41:14;16.52;;;9.80;;
63089;SDS011;49174;43.198;27.824;2022-12-07T08:43:40;14.40;;;8.90;;
63089;SDS011;49174;43.198;27.824;2022-12-07T08:48:56;12.10;;;8.40;;
63089;SDS011;49174;43.198;27.824;2022-12-07T08:51:27;12.00;;;8.82;;
63089;SDS011;49174;43.198;27.824;2022-12-07T08:53:53;15.30;;;9.02;;
63089;SDS011;49174;43.198;27.824;2022-12-07T08:56:22;11.30;;;8.50;;
63089;SDS011;49174;43.198;27.824;2022-12-07T08:58:48;12.50;;;8.95;;
63089;SDS011;49174;43.198;27.824;2022-12-07T09:01:14;16.23;;;9.45;;
63089;SDS011;49174;43.198;27.824;2022-12-07T09:03:39;15.48;;;8.85;;
63089;SDS011;49174;43.198;27.824;2022-12-07T09:06:06;14.75;;;8.77;;
63089;SDS011;49174;43.198;27.824;2022-12-07T09:08:36;13.35;;;7.70;;
63089;SDS011;49174;43.198;27.824;2022-12-07T09:11:05;14.75;;;7.63;;
63089;SDS011;49174;43.198;27.824;2022-12-07T09:13:31;14.65;;;7.07;;
63089;SDS011;49174;43.198;27.824;2022-12-07T09:15:56;9.85;;;6.55;;
63089;SDS011;49174;43.198;27.824;2022-12-07T09:18:22;12.77;;;7.43;;
63089;SDS011;49174;43.198;27.824;2022-12-07T09:20:49;10.65;;;6.32;;
63089;SDS011;49174;43.198;27.824;2022-12-07T09:23:14;7.65;;;5.25;;
63089;SDS011;49174;43.198;27.824;2022-12-07T09:25:40;9.70;;;6.50;;
63089;SDS011;49174;43.198;27.824;2022-12-07T09:28:05;11.75;;;6.50;;
63089;SDS011;49174;43.198;27.824;2022-12-07T09:30:31;9.10;;;5.68;;
63089;SDS011;49174;43.198;27.824;2022-12-07T09:32:57;11.93;;;5.45;;
63089;SDS011;49174;43.198;27.824;2022-12-07T09:35:23;8.77;;;5.47;;
63089;SDS011;49174;43.198;27.824;2022-12-07T09:37:49;10.23;;;6.88;;
63089;SDS011;49174;43.198;27.824;2022-12-07T09:40:16;8.20;;;5.45;;
63089;SDS011;49174;43.198;27.824;2022-12-07T09:42:53;14.02;;;6.80;;
63089;SDS011;49174;43.198;27.824;2022-12-07T09:45:24;12.73;;;7.10;;
63089;SDS011;49174;43.198;27.824;2022-12-07T09:47:56;9.23;;;6.13;;
63089;SDS011;49174;43.198;27.824;2022-12-07T09:50:23;11.65;;;6.57;;
63089;SDS011;49174;43.198;27.824;2022-12-07T09:52:51;10.35;;;6.45;;
63089;SDS011;49174;43.198;27.824;2022-12-07T09:55:21;9.32;;;5.93;;
63089;SDS011;49174;43.198;27.824;2022-12-07T09:57:51;9.77;;;6.53;;
63089;SDS011;49174;43.198;27.824;2022-12-07T10:00:18;12.73;;;7.80;;
63089;SDS011;49174;43.198;27.824;2022-12-07T10:02:48;11.25;;;7.25;;
63089;SDS011;49174;43.198;27.824;2022-12-07T10:05:29;24.30;;;8.90;;
63089;SDS011;49174;43.198;27.824;2022-12-07T10:07:58;10.27;;;7.22;;
63089;SDS011;49174;43.198;27.824;2022-12-07T10:10:25;13.10;;;7.97;;
63089;SDS011;49174;43.198;27.824;2022-12-07T10:12:59;8.80;;;5.88;;
63089;SDS011;49174;43.198;27.824;2022-12-07T10:15:44;8.68;;;5.97;;
63089;SDS011;49174;43.198;27.824;2022-12-07T10:18:56;13.60;;;8.38;;
63089;SDS011;49174;43.198;27.824;2022-12-07T10:21:10;10.20;;;5.63;;
63089;SDS011;49174;43.198;27.824;2022-12-07T10:23:39;11.90;;;6.72;;
63089;SDS011;49174;43.198;27.824;2022-12-07T10:32:32;8.18;;;6.05;;
63089;SDS011;49174;43.198;27.824;2022-12-07T10:34:41;11.50;;;7.00;;
63089;SDS011;49174;43.198;27.824;2022-12-07T10:39:46;8.32;;;6.32;;
63089;SDS011;49174;43.198;27.824;2022-12-07T10:42:21;10.57;;;7.07;;
63089;SDS011;49174;43.198;27.824;2022-12-07T10:45:13;9.82;;;6.68;;
63089;SDS011;49174;43.198;27.824;2022-12-07T10:47:44;10.95;;;7.28;;
63089;SDS011;49174;43.198;27.824;2022-12-07T10:55:56;14.45;;;8.30;;
63089;SDS011;49174;43.198;27.824;2022-12-07T10:58:41;12.00;;;7.70;;
63089;SDS011;49174;43.198;27.824;2022-12-07T11:34:41;9.02;;;5.88;;
63089;SDS011;49174;43.198;27.824;2022-12-07T11:37:33;13.05;;;7.13;;
63089;SDS011;49174;43.198;27.824;2022-12-07T11:42:58;11.40;;;6.07;;
63089;SDS011;49174;43.198;27.824;2022-12-07T11:45:30;9.68;;;5.05;;
63089;SDS011;49174;43.198;27.824;2022-12-07T11:50:50;9.25;;;5.55;;
63089;SDS011;49174;43.198;27.824;2022-12-07T11:53:20;7.90;;;5.35;;
63089;SDS011;49174;43.198;27.824;2022-12-07T11:58:38;9.35;;;6.22;;
63089;SDS011;49174;43.198;27.824;2022-12-07T12:03:36;8.23;;;5.38;;
63089;SDS011;49174;43.198;27.824;2022-12-07T12:06:05;10.75;;;6.57;;
63089;SDS011;49174;43.198;27.824;2022-12-07T12:08:36;10.30;;;5.47;;
63089;SDS011;49174;43.198;27.824;2022-12-07T12:14:23;8.98;;;6.10;;
63089;SDS011;49174;43.198;27.824;2022-12-07T12:21:43;14.43;;;9.43;;
63089;SDS011;49174;43.198;27.824;2022-12-07T12:24:12;10.45;;;6.47;;
63089;SDS011;49174;43.198;27.824;2022-12-07T12:27:02;10.93;;;6.45;;
63089;SDS011;49174;43.198;27.824;2022-12-07T12:29:38;11.27;;;6.70;;
63089;SDS011;49174;43.198;27.824;2022-12-07T12:32:20;10.95;;;5.35;;
63089;SDS011;49174;43.198;27.824;2022-12-07T12:45:18;6.80;;;4.72;;
63089;SDS011;49174;43.198;27.824;2022-12-07T12:47:53;9.93;;;5.78;;
63089;SDS011;49174;43.198;27.824;2022-12-07T12:50:24;10.23;;;5.32;;
63089;SDS011;49174;43.198;27.824;2022-12-07T13:00:45;10.18;;;6.82;;
63089;SDS011;49174;43.198;27.824;2022-12-07T13:03:27;8.43;;;6.45;;
63089;SDS011;49174;43.198;27.824;2022-12-07T13:08:44;8.18;;;5.60;;
63089;SDS011;49174;43.198;27.824;2022-12-07T13:11:25;9.05;;;4.45;;
63089;SDS011;49174;43.198;27.824;2022-12-07T13:41:16;8.65;;;5.80;;
63089;SDS011;49174;43.198;27.824;2022-12-07T13:44:00;10.05;;;6.68;;
63089;SDS011;49174;43.198;27.824;2022-12-07T13:46:33;9.73;;;6.55;;
63089;SDS011;49174;43.198;27.824;2022-12-07T13:51:49;11.15;;;5.50;;
63089;SDS011;49174;43.198;27.824;2022-12-07T13:54:15;11.13;;;7.00;;
63089;SDS011;49174;43.198;27.824;2022-12-07T13:56:41;10.93;;;6.35;;
63089;SDS011;49174;43.198;27.824;2022-12-07T13:59:12;10.70;;;6.93;;
63089;SDS011;49174;43.198;27.824;2022-12-07T14:01:41;10.77;;;6.80;;
63089;SDS011;49174;43.198;27.824;2022-12-07T14:07:00;12.73;;;7.75;;
63089;SDS011;49174;43.198;27.824;2022-12-07T14:09:52;10.77;;;6.63;;
63089;SDS011;49174;43.198;27.824;2022-12-07T14:12:23;12.02;;;6.40;;
63089;SDS011;49174;43.198;27.824;2022-12-07T14:14:50;14.75;;;8.00;;
63089;SDS011;49174;43.198;27.824;2022-12-07T14:17:19;9.05;;;6.53;;
63089;SDS011;49174;43.198;27.824;2022-12-07T14:19:51;15.88;;;9.85;;
63089;SDS011;49174;43.198;27.824;2022-12-07T14:22:23;19.42;;;10.65;;
63089;SDS011;49174;43.198;27.824;2022-12-07T14:27:39;20.95;;;12.50;;
63089;SDS011;49174;43.198;27.824;2022-12-07T14:30:16;19.23;;;11.13;;
63089;SDS011;49174;43.198;27.824;2022-12-07T14:32:43;17.77;;;10.02;;
63089;SDS011;49174;43.198;27.824;2022-12-07T14:35:14;17.35;;;11.15;;
63089;SDS011;49174;43.198;27.824;2022-12-07T14:37:41;21.10;;;12.93;;
63089;SDS011;49174;43.198;27.824;2022-12-07T14:40:12;20.83;;;11.45;;
63089;SDS011;49174;43.198;27.824;2022-12-07T14:43:19;16.38;;;8.35;;
63089;SDS011;49174;43.198;27.824;2022-12-07T14:45:45;16.65;;;8.10;;
63089;SDS011;49174;43.198;27.824;2022-12-07T14:48:11;16.23;;;8.10;;
63089;SDS011;49174;43.198;27.824;2022-12-07T14:50:44;20.27;;;9.75;;
63089;SDS011;49174;43.198;27.824;2022-12-07T14:53:15;25.00;;;10.63;;
63089;SDS011;49174;43.198;27.824;2022-12-07T14:55:43;21.55;;;10.68;;
63089;SDS011;49174;43.198;27.824;2022-12-07T14:58:16;28.45;;;13.65;;
63089;SDS011;49174;43.198;27.824;2022-12-07T15:00:42;26.77;;;11.25;;
63089;SDS011;49174;43.198;27.824;2022-12-07T15:03:08;17.75;;;9.23;;
63089;SDS011;49174;43.198;27.824;2022-12-07T15:05:34;22.27;;;8.88;;
63089;SDS011;49174;43.198;27.824;2022-12-07T15:08:01;21.35;;;8.70;;
63089;SDS011;49174;43.198;27.824;2022-12-07T15:10:28;20.30;;;8.05;;
63089;SDS011;49174;43.198;27.824;2022-12-07T15:13:00;13.77;;;9.35;;
63089;SDS011;49174;43.198;27.824;2022-12-07T15:15:46;70.68;;;33.50;;
63089;SDS011;49174;43.198;27.824;2022-12-07T15:18:13;262.80;;;103.43;;
63089;SDS011;49174;43.198;27.824;2022-12-07T15:20:39;159.82;;;78.68;;
63089;SDS011;49174;43.198;27.824;2022-12-07T15:23:05;60.45;;;31.15;;
63089;SDS011;49174;43.198;27.824;2022-12-07T15:25:30;30.55;;;15.00;;
63089;SDS011;49174;43.198;27.824;2022-12-07T15:27:56;26.00;;;12.23;;
63089;SDS011;49174;43.198;27.824;2022-12-07T15:30:21;27.48;;;13.90;;
63089;SDS011;49174;43.198;27.824;2022-12-07T15:32:50;31.33;;;15.52;;
63089;SDS011;49174;43.198;27.824;2022-12-07T15:35:17;29.45;;;13.95;;
63089;SDS011;49174;43.198;27.824;2022-12-07T15:37:43;24.05;;;9.70;;
63089;SDS011;49174;43.198;27.824;2022-12-07T15:40:09;40.85;;;22.35;;
63089;SDS011;49174;43.198;27.824;2022-12-07T15:42:35;37.92;;;18.90;;
63089;SDS011;49174;43.198;27.824;2022-12-07T15:45:02;44.72;;;19.70;;
63089;SDS011;49174;43.198;27.824;2022-12-07T15:47:29;56.30;;;24.50;;
63089;SDS011;49174;43.198;27.824;2022-12-07T15:49:59;46.17;;;23.33;;
63089;SDS011;49174;43.198;27.824;2022-12-07T15:52:25;19.90;;;10.52;;
63089;SDS011;49174;43.198;27.824;2022-12-07T15:54:51;18.48;;;10.60;;
63089;SDS011;49174;43.198;27.824;2022-12-07T15:57:17;32.65;;;16.35;;
63089;SDS011;49174;43.198;27.824;2022-12-07T15:59:42;237.63;;;100.45;;
63089;SDS011;49174;43.198;27.824;2022-12-07T16:02:09;72.00;;;34.40;;
63089;SDS011;49174;43.198;27.824;2022-12-07T16:04:35;23.30;;;11.25;;
63089;SDS011;49174;43.198;27.824;2022-12-07T16:07:01;23.88;;;12.32;;
63089;SDS011;49174;43.198;27.824;2022-12-07T16:09:27;25.92;;;16.33;;
63089;SDS011;49174;43.198;27.824;2022-12-07T16:11:53;30.17;;;18.20;;
63089;SDS011;49174;43.198;27.824;2022-12-07T16:14:19;31.23;;;18.40;;
63089;SDS011;49174;43.198;27.824;2022-12-07T16:16:45;19.35;;;10.40;;
63089;SDS011;49174;43.198;27.824;2022-12-07T16:19:10;24.67;;;13.30;;
63089;SDS011;49174;43.198;27.824;2022-12-07T16:21:36;34.70;;;18.92;;
63089;SDS011;49174;43.198;27.824;2022-12-07T16:24:02;28.02;;;17.25;;
63089;SDS011;49174;43.198;27.824;2022-12-07T16:26:30;30.00;;;16.48;;
63089;SDS011;49174;43.198;27.824;2022-12-07T16:28:56;23.73;;;13.23;;
63089;SDS011;49174;43.198;27.824;2022-12-07T16:31:23;19.70;;;11.25;;
63089;SDS011;49174;43.198;27.824;2022-12-07T16:33:51;22.77;;;13.10;;
63089;SDS011;49174;43.198;27.824;2022-12-07T16:36:19;24.60;;;11.18;;
63089;SDS011;49174;43.198;27.824;2022-12-07T16:38:47;30.95;;;14.43;;
63089;SDS011;49174;43.198;27.824;2022-12-07T16:41:13;54.28;;;22.45;;
63089;SDS011;49174;43.198;27.824;2022-12-07T16:43:39;42.78;;;18.08;;
63089;SDS011;49174;43.198;27.824;2022-12-07T16:46:05;23.70;;;12.73;;
63089;SDS011;49174;43.198;27.824;2022-12-07T16:48:31;20.42;;;11.75;;
63089;SDS011;49174;43.198;27.824;2022-12-07T16:50:56;41.22;;;16.25;;
63089;SDS011;49174;43.198;27.824;2022-12-07T16:53:23;73.20;;;29.15;;
63089;SDS011;49174;43.198;27.824;2022-12-07T16:55:49;76.18;;;30.20;;
63089;SDS011;49174;43.198;27.824;2022-12-07T16:58:15;52.28;;;23.50;;
63089;SDS011;49174;43.198;27.824;2022-12-07T17:00:42;86.82;;;37.78;;
63089;SDS011;49174;43.198;27.824;2022-12-07T17:03:09;58.47;;;27.83;;
63089;SDS011;49174;43.198;27.824;2022-12-07T17:05:39;46.17;;;24.17;;
63089;SDS011;49174;43.198;27.824;2022-12-07T17:08:09;45.30;;;23.98;;
63089;SDS011;49174;43.198;27.824;2022-12-07T17:10:36;45.88;;;28.77;;